createdAt,value
2024-03-05T00:00:28.210Z,8.32
2024-03-05T00:02:55.005Z,7.88
2024-03-05T00:05:21.644Z,8.42
2024-03-05T00:07:48.390Z,8.37
2024-03-05T00:10:15.141Z,8.54
2024-03-05T00:12:41.794Z,8.63
2024-03-05T00:15:08.787Z,9.13
2024-03-05T00:17:35.443Z,9.12
2024-03-05T00:20:02.260Z,9.19
2024-03-05T00:22:29.300Z,9.31
2024-03-05T00:24:56.187Z,9.73
2024-03-05T00:27:22.811Z,9.90
2024-03-05T00:29:49.653Z,10.51
2024-03-05T00:32:16.964Z,10.81
2024-03-05T00:34:43.598Z,10.44
2024-03-05T00:37:10.271Z,11.08
2024-03-05T00:39:36.924Z,10.61
2024-03-05T00:42:04.688Z,9.77
2024-03-05T00:44:31.282Z,9.49
2024-03-05T00:46:58.126Z,9.67
2024-03-05T00:49:24.935Z,10.02
2024-03-05T00:51:51.659Z,10.28
2024-03-05T00:54:18.230Z,9.94
2024-03-05T00:56:44.812Z,9.85
2024-03-05T00:59:12.530Z,8.89
2024-03-05T01:01:40.619Z,8.30
2024-03-05T01:04:08.935Z,8.25
2024-03-05T01:06:35.703Z,9.76
2024-03-05T01:09:02.414Z,10.02
2024-03-05T01:11:30.833Z,9.76
2024-03-05T01:13:57.465Z,9.67
2024-03-05T01:16:24.552Z,9.99
2024-03-05T01:18:51.166Z,10.17
2024-03-05T01:21:18.794Z,10.50
2024-03-05T01:23:45.437Z,10.37
2024-03-05T01:26:11.997Z,10.37
2024-03-05T01:28:38.686Z,10.40
2024-03-05T01:31:05.322Z,10.57
2024-03-05T01:33:31.963Z,10.39
2024-03-05T01:35:59.166Z,9.10
2024-03-05T01:38:28.343Z,7.87
2024-03-05T01:40:55.192Z,8.73
2024-03-05T01:43:22.355Z,8.63
2024-03-05T01:45:51.297Z,8.42
2024-03-05T01:48:18.378Z,8.23
2024-03-05T01:50:46.079Z,7.96
2024-03-05T01:53:16.486Z,7.60
2024-03-05T01:55:46.701Z,8.32
2024-03-05T01:58:16.721Z,8.94
2024-03-05T02:00:43.524Z,9.50
2024-03-05T02:03:12.297Z,10.75
2024-03-05T02:05:44.626Z,10.38
2024-03-05T02:08:16.117Z,10.49
2024-03-05T02:10:48.416Z,10.31
2024-03-05T02:13:15.067Z,10.46
2024-03-05T02:15:41.779Z,9.92
2024-03-05T02:18:09.042Z,10.04
2024-03-05T02:20:35.840Z,9.95
2024-03-05T02:23:03.340Z,10.37
2024-03-05T02:25:32.580Z,10.45
2024-03-05T02:28:00.882Z,10.01
2024-03-05T02:30:27.575Z,10.38
2024-03-05T02:32:54.393Z,9.96
2024-03-05T02:35:21.717Z,10.30
2024-03-05T02:37:49.048Z,10.65
2024-03-05T02:40:16.313Z,10.42
2024-03-05T02:42:43.917Z,10.24
2024-03-05T02:45:12.586Z,10.54
2024-03-05T02:47:43.655Z,10.46
2024-03-05T02:50:11.833Z,10.43
2024-03-05T02:52:42.244Z,10.38
2024-03-05T02:55:10.614Z,10.47
2024-03-05T02:57:45.245Z,10.58
2024-03-05T03:00:21.929Z,11.01
2024-03-05T03:02:51.661Z,10.98
2024-03-05T03:05:20.206Z,10.58
2024-03-05T03:07:46.859Z,10.82
2024-03-05T03:10:14.412Z,10.91
2024-03-05T03:12:41.892Z,10.29
2024-03-05T03:15:09.187Z,10.84
2024-03-05T03:17:39.075Z,11.11
2024-03-05T03:20:08.845Z,10.84
2024-03-05T03:22:38.866Z,11.26
2024-03-05T03:25:05.855Z,10.85
2024-03-05T03:27:32.517Z,10.84
2024-03-05T03:29:59.348Z,10.58
2024-03-05T03:32:26.079Z,10.10
2024-03-05T03:34:53.089Z,9.28
2024-03-05T03:37:19.845Z,8.95
2024-03-05T03:39:49.548Z,9.14
2024-03-05T03:42:16.343Z,10.25
2024-03-05T03:44:43.187Z,10.88
2024-03-05T03:47:10.080Z,11.05
2024-03-05T03:49:39.489Z,11.95
2024-03-05T03:52:06.410Z,12.42
2024-03-05T03:54:34.733Z,11.96
2024-03-05T03:57:01.347Z,12.09
2024-03-05T03:59:28.824Z,11.87
2024-03-05T04:01:56.135Z,12.07
2024-03-05T04:04:22.979Z,12.30
2024-03-05T04:06:49.657Z,11.78
2024-03-05T04:09:16.216Z,11.31
2024-03-05T04:11:43.658Z,11.70
2024-03-05T04:14:10.634Z,11.48
2024-03-05T04:16:41.755Z,11.30
2024-03-05T04:19:08.531Z,10.87
2024-03-05T04:21:46.161Z,10.79
2024-03-05T04:24:14.890Z,10.39
2024-03-05T04:26:42.756Z,10.14
2024-03-05T04:29:17.036Z,9.21
2024-03-05T04:31:50.385Z,9.65
2024-03-05T04:34:21.547Z,10.64
2024-03-05T04:36:50.952Z,10.48
2024-03-05T04:39:17.555Z,9.82
2024-03-05T04:41:47.726Z,10.26
2024-03-05T04:44:14.900Z,9.87
2024-03-05T04:46:42.261Z,10.33
2024-03-05T04:49:08.934Z,10.94
2024-03-05T04:51:36.194Z,10.86
2024-03-05T04:54:02.926Z,10.82
2024-03-05T04:56:29.479Z,10.40
2024-03-05T04:58:56.137Z,10.76
2024-03-05T05:01:22.913Z,10.55
2024-03-05T05:03:49.682Z,10.83
2024-03-05T05:06:16.546Z,10.66
2024-03-05T05:08:43.296Z,11.23
2024-03-05T05:11:10.098Z,12.53
2024-03-05T05:13:36.913Z,12.93
2024-03-05T05:16:03.769Z,13.20
2024-03-05T05:18:30.357Z,12.06
2024-03-05T05:20:57.051Z,12.64
2024-03-05T05:23:23.615Z,13.29
2024-03-05T05:25:50.256Z,13.05
2024-03-05T05:28:17.028Z,13.39
2024-03-05T05:30:44.758Z,12.69
2024-03-05T05:33:11.419Z,13.25
2024-03-05T05:35:38.664Z,13.31
2024-03-05T05:38:05.588Z,12.54
2024-03-05T05:40:32.269Z,12.27
2024-03-05T05:42:59.714Z,11.71
2024-03-05T05:45:26.510Z,13.09
2024-03-05T05:47:54.669Z,14.86
2024-03-05T05:50:23.595Z,16.10
2024-03-05T05:52:55.807Z,17.54
2024-03-05T05:55:26.926Z,18.81
2024-03-05T05:57:55.653Z,18.42
2024-03-05T06:00:33.860Z,19.97
2024-03-05T06:03:01.850Z,19.75
2024-03-05T06:05:32.144Z,19.91
2024-03-05T06:08:02.515Z,19.35
2024-03-05T06:10:30.848Z,20.40
2024-03-05T06:12:58.394Z,20.03
2024-03-05T06:15:25.268Z,20.09
2024-03-05T06:17:53.055Z,20.21
2024-03-05T06:20:19.925Z,21.98
2024-03-05T06:22:47.228Z,21.59
2024-03-05T06:25:18.028Z,20.97
2024-03-05T06:27:45.335Z,22.28
2024-03-05T06:30:18.501Z,22.63
2024-03-05T06:32:48.660Z,21.03
2024-03-05T06:35:16.503Z,21.73
2024-03-05T06:37:50.555Z,20.84
2024-03-05T06:40:21.359Z,20.61
2024-03-05T06:43:05.354Z,19.94
2024-03-05T06:45:35.514Z,19.43
2024-03-05T06:50:35.332Z,20.56
2024-03-05T06:53:21.039Z,19.80
2024-03-05T06:56:06.427Z,19.42
2024-03-05T06:58:35.192Z,20.35
2024-03-05T07:01:08.532Z,19.98
2024-03-05T07:03:36.541Z,19.72
2024-03-05T07:06:10.822Z,20.14
2024-03-05T07:08:41.670Z,19.78
2024-03-05T07:11:10.918Z,20.91
2024-03-05T07:13:40.108Z,19.41
2024-03-05T07:16:10.356Z,20.16
2024-03-05T07:18:37.698Z,20.54
2024-03-05T07:21:04.882Z,20.77
2024-03-05T07:23:31.777Z,22.80
2024-03-05T07:25:58.919Z,22.93
2024-03-05T07:28:28.212Z,23.94
2024-03-05T07:30:55.521Z,26.68
2024-03-05T07:33:23.004Z,26.41
2024-03-05T07:35:50.014Z,25.12
2024-03-05T07:38:16.657Z,24.14
2024-03-05T07:40:43.689Z,23.63
2024-03-05T07:43:10.431Z,23.92
2024-03-05T07:45:37.255Z,21.98
2024-03-05T07:48:04.379Z,23.43
2024-03-05T07:50:31.042Z,24.27
2024-03-05T07:53:00.597Z,25.62
2024-03-05T07:55:32.093Z,27.34
2024-03-05T07:58:02.708Z,31.72
2024-03-05T08:00:29.424Z,31.84
2024-03-05T08:02:56.212Z,32.20
2024-03-05T08:05:24.212Z,32.06
2024-03-05T08:07:51.555Z,35.57
2024-03-05T08:10:19.004Z,34.83
2024-03-05T08:12:48.375Z,36.97
2024-03-05T08:15:18.989Z,38.33
2024-03-05T08:17:47.292Z,37.05
2024-03-05T08:20:14.532Z,39.17
2024-03-05T08:22:42.746Z,39.11
2024-03-05T08:25:13.943Z,38.45
2024-03-05T08:27:44.664Z,39.73
2024-03-05T08:30:16.424Z,39.79
2024-03-05T08:32:43.382Z,41.24
2024-03-05T08:35:12.479Z,42.10
2024-03-05T08:37:41.836Z,41.08
2024-03-05T08:40:22.031Z,42.13
2024-03-05T08:42:50.739Z,43.00
2024-03-05T08:45:20.994Z,41.15
2024-03-05T08:47:49.381Z,40.57
2024-03-05T08:50:16.143Z,41.16
2024-03-05T08:52:43.546Z,40.27
2024-03-05T08:55:11.622Z,37.15
2024-03-05T08:57:42.468Z,34.99
2024-03-05T09:00:26.828Z,33.61
2024-03-05T09:03:02.484Z,34.53
2024-03-05T09:05:29.117Z,34.57
2024-03-05T09:07:55.884Z,34.44
2024-03-05T09:10:22.744Z,35.83
2024-03-05T09:12:49.348Z,35.72
2024-03-05T09:15:17.458Z,36.25
2024-03-05T09:17:44.356Z,36.55
2024-03-05T09:20:17.448Z,37.53
2024-03-05T09:22:46.109Z,37.09
2024-03-05T09:25:16.717Z,38.18
2024-03-05T09:27:45.917Z,39.04
2024-03-05T09:30:15.931Z,40.14
2024-03-05T09:32:44.607Z,41.81
2024-03-05T09:35:13.611Z,39.99
2024-03-05T09:37:40.463Z,40.92
2024-03-05T09:40:07.903Z,40.01
2024-03-05T09:42:38.144Z,40.36
2024-03-05T09:45:07.793Z,39.29
2024-03-05T09:47:38.572Z,41.82
2024-03-05T09:50:06.156Z,42.44
2024-03-05T09:52:34.368Z,44.07
2024-03-05T09:55:02.170Z,42.84
2024-03-05T09:57:30.411Z,43.81
2024-03-05T09:59:57.383Z,42.01
2024-03-05T10:02:26.678Z,44.81
2024-03-05T10:05:00.370Z,47.44
2024-03-05T10:07:28.271Z,46.35
2024-03-05T10:10:05.704Z,48.70
2024-03-05T10:12:32.345Z,45.93
2024-03-05T10:15:26.078Z,48.61
2024-03-05T10:17:55.869Z,48.97
2024-03-05T10:20:34.237Z,46.97
2024-03-05T10:23:04.021Z,48.61
2024-03-05T10:25:34.416Z,47.28
2024-03-05T10:28:03.079Z,45.59
2024-03-05T10:30:35.540Z,44.73
2024-03-05T10:33:08.940Z,45.58
2024-03-05T10:35:37.796Z,44.28
2024-03-05T10:38:15.209Z,43.18
2024-03-05T10:40:45.885Z,40.80
2024-03-05T10:43:17.075Z,42.51
2024-03-05T10:45:45.873Z,43.36
2024-03-05T10:48:13.589Z,42.48
2024-03-05T10:50:41.750Z,41.88
2024-03-05T10:53:09.781Z,41.80
2024-03-05T10:55:38.115Z,43.27
2024-03-05T10:58:22.809Z,41.15
2024-03-05T11:00:52.142Z,43.01
2024-03-05T11:03:35.704Z,40.90
2024-03-05T11:06:04.833Z,42.26
2024-03-05T11:08:32.288Z,42.72
2024-03-05T11:11:03.977Z,42.89
2024-03-05T11:13:33.739Z,40.86
2024-03-05T11:16:03.833Z,40.37
2024-03-05T11:18:38.510Z,42.02
2024-03-05T11:21:10.457Z,41.76
2024-03-05T11:23:41.585Z,40.76
2024-03-05T11:26:09.353Z,38.59
2024-03-05T11:28:38.150Z,38.33
2024-03-05T11:31:21.074Z,39.67
2024-03-05T11:34:03.635Z,40.35
2024-03-05T11:36:37.750Z,40.10
2024-03-05T11:39:21.208Z,37.86
2024-03-05T11:41:49.088Z,39.88
2024-03-05T11:44:36.496Z,39.94
2024-03-05T11:47:04.369Z,40.27
2024-03-05T11:49:31.388Z,38.70
2024-03-05T11:51:59.835Z,39.76
2024-03-05T11:54:26.543Z,38.15
2024-03-05T11:57:01.053Z,38.93
2024-03-05T11:59:40.754Z,39.29
2024-03-05T12:02:11.439Z,39.84
2024-03-05T12:04:39.045Z,41.02
2024-03-05T12:07:08.641Z,40.34
2024-03-05T12:09:38.532Z,42.10
2024-03-05T12:12:13.567Z,39.18
2024-03-05T12:14:54.586Z,39.06
2024-03-05T12:17:22.885Z,38.55
2024-03-05T12:20:04.696Z,39.34
2024-03-05T12:22:31.650Z,39.68
2024-03-05T12:24:58.955Z,39.61
2024-03-05T12:27:26.366Z,39.35
2024-03-05T12:29:53.471Z,39.47
2024-03-05T12:32:20.223Z,39.58
2024-03-05T12:34:48.776Z,38.68
2024-03-05T12:37:17.039Z,40.54
2024-03-05T12:39:43.864Z,40.80
2024-03-05T12:42:14.455Z,40.43
2024-03-05T12:44:41.976Z,40.30
2024-03-05T12:47:15.177Z,40.38
2024-03-05T12:49:47.643Z,38.56
2024-03-05T12:52:23.116Z,39.49
2024-03-05T12:55:00.926Z,38.86
2024-03-05T12:57:28.888Z,38.10
2024-03-05T12:59:59.393Z,37.75
2024-03-05T13:02:26.170Z,37.43
2024-03-05T13:04:55.316Z,37.51
2024-03-05T13:07:23.848Z,36.21
2024-03-05T13:09:50.805Z,35.49
2024-03-05T13:12:18.247Z,34.59
2024-03-05T13:14:44.914Z,34.94
2024-03-05T13:17:11.523Z,34.47
2024-03-05T13:19:38.200Z,33.74
2024-03-05T13:22:05.078Z,33.96
2024-03-05T13:24:35.357Z,33.58
2024-03-05T13:27:02.157Z,32.95
2024-03-05T13:29:28.779Z,33.24
2024-03-05T13:31:55.481Z,33.53
2024-03-05T13:34:23.729Z,32.76
2024-03-05T13:36:50.654Z,32.62
2024-03-05T13:39:23.070Z,33.32
2024-03-05T13:41:53.592Z,34.96
2024-03-05T13:44:24.029Z,33.97
2024-03-05T13:46:52.382Z,33.51
2024-03-05T13:49:20.975Z,34.05
2024-03-05T13:51:48.001Z,35.10
2024-03-05T13:54:14.697Z,36.20
2024-03-05T13:56:43.712Z,34.03
2024-03-05T13:59:13.239Z,34.68
2024-03-05T14:01:40.546Z,33.48
2024-03-05T14:04:12.999Z,34.01
2024-03-05T14:06:39.911Z,32.91
2024-03-05T14:09:10.157Z,31.46
2024-03-05T14:11:37.553Z,31.12
2024-03-05T14:14:04.584Z,31.03
2024-03-05T14:16:32.647Z,30.02
2024-03-05T14:18:59.989Z,29.74
2024-03-05T14:21:30.721Z,29.50
2024-03-05T14:23:58.558Z,29.45
2024-03-05T14:26:25.531Z,29.14
2024-03-05T14:28:52.343Z,29.17
2024-03-05T14:31:19.480Z,28.54
2024-03-05T14:33:46.598Z,27.49
2024-03-05T14:36:15.192Z,27.35
2024-03-05T14:38:43.287Z,28.01
2024-03-05T14:41:10.986Z,28.31
2024-03-05T14:43:37.844Z,28.67
2024-03-05T14:46:04.740Z,28.22
2024-03-05T14:48:31.443Z,28.25
2024-03-05T14:50:58.108Z,28.74
2024-03-05T14:53:24.796Z,30.06
2024-03-05T14:55:52.062Z,30.50
2024-03-05T14:58:18.978Z,30.51
2024-03-05T15:00:46.032Z,31.45
2024-03-05T15:03:13.251Z,31.43
2024-03-05T15:05:40.003Z,32.92
2024-03-05T15:08:07.384Z,32.35
2024-03-05T15:10:34.300Z,31.78
2024-03-05T15:13:00.962Z,32.76
2024-03-05T15:15:27.662Z,31.16
2024-03-05T15:17:55.491Z,32.51
2024-03-05T15:20:22.897Z,33.04
2024-03-05T15:22:50.409Z,32.20
2024-03-05T15:25:22.807Z,32.33
2024-03-05T15:28:00.578Z,32.68
2024-03-05T15:30:33.138Z,31.94
2024-03-05T15:33:01.380Z,32.17
2024-03-05T15:35:29.919Z,31.94
2024-03-05T15:37:57.662Z,30.98
2024-03-05T15:40:25.256Z,31.31
2024-03-05T15:42:56.468Z,30.99
2024-03-05T15:45:31.177Z,31.30
2024-03-05T15:47:59.468Z,31.74
2024-03-05T15:50:30.968Z,31.85
2024-03-05T15:53:00.678Z,31.78
2024-03-05T15:55:31.112Z,31.98
2024-03-05T15:58:04.685Z,31.10
2024-03-05T16:00:36.390Z,32.90
2024-03-05T16:03:07.964Z,30.78
2024-03-05T16:05:55.428Z,31.11
2024-03-05T16:08:30.934Z,30.20
2024-03-05T16:11:00.047Z,30.46
2024-03-05T16:13:30.825Z,30.20
2024-03-05T16:15:57.921Z,30.04
2024-03-05T16:18:25.475Z,29.26
2024-03-05T16:20:53.499Z,30.48
2024-03-05T16:23:20.261Z,30.80
2024-03-05T16:25:46.839Z,30.43
2024-03-05T16:28:18.074Z,30.74
2024-03-05T16:30:44.883Z,29.96
2024-03-05T16:33:11.852Z,29.42
2024-03-05T16:35:38.648Z,29.93
2024-03-05T16:38:06.840Z,30.22
2024-03-05T16:40:38.456Z,30.49
2024-03-05T16:43:07.112Z,29.95
2024-03-05T16:45:35.354Z,28.61
2024-03-05T16:48:06.365Z,28.01
2024-03-05T16:50:34.237Z,28.92
2024-03-05T16:53:07.065Z,28.96
2024-03-05T16:55:34.053Z,29.06
2024-03-05T16:58:02.165Z,28.35
2024-03-05T17:00:34.663Z,28.44
2024-03-05T17:03:07.693Z,27.94
2024-03-05T17:05:37.852Z,28.41
2024-03-05T17:08:15.279Z,27.81
2024-03-05T17:10:44.111Z,27.60
2024-03-05T17:13:18.905Z,27.77
2024-03-05T17:15:48.343Z,29.92
2024-03-05T17:18:15.136Z,27.92
2024-03-05T17:20:42.395Z,29.38
2024-03-05T17:23:14.464Z,30.02
2024-03-05T17:25:43.478Z,30.25
2024-03-05T17:28:12.080Z,30.62
2024-03-05T17:30:39.839Z,31.26
2024-03-05T17:33:10.892Z,30.92
2024-03-05T17:35:40.154Z,31.44
2024-03-05T17:38:07.828Z,30.53
2024-03-05T17:40:34.679Z,32.05
2024-03-05T17:43:02.833Z,31.62
2024-03-05T17:45:30.976Z,31.01
2024-03-05T17:47:59.610Z,31.31
2024-03-05T17:50:26.371Z,30.41
2024-03-05T17:52:53.535Z,29.72
2024-03-05T17:55:20.443Z,30.11
2024-03-05T17:57:51.741Z,30.02
2024-03-05T18:00:28.837Z,29.30
2024-03-05T18:02:59.694Z,29.71
2024-03-05T18:05:27.887Z,29.69
2024-03-05T18:07:55.536Z,27.65
2024-03-05T18:10:26.327Z,28.40
2024-03-05T18:12:53.603Z,29.54
2024-03-05T18:15:21.554Z,29.83
2024-03-05T18:17:49.867Z,29.66
2024-03-05T18:20:17.747Z,28.73
2024-03-05T18:22:45.813Z,27.36
2024-03-05T18:25:19.605Z,28.84
2024-03-05T18:27:48.756Z,29.23
2024-03-05T18:30:20.314Z,29.41
2024-03-05T18:32:48.334Z,28.68
2024-03-05T18:35:17.708Z,29.79
2024-03-05T18:37:45.372Z,29.94
2024-03-05T18:40:15.550Z,29.65
2024-03-05T18:42:43.100Z,29.91
2024-03-05T18:45:16.487Z,27.70
2024-03-05T18:47:54.444Z,25.47
2024-03-05T18:50:29.191Z,25.14
2024-03-05T18:52:58.102Z,26.46
2024-03-05T18:55:29.787Z,28.31
2024-03-05T18:57:57.317Z,26.90
2024-03-05T19:00:24.673Z,28.46
2024-03-05T19:02:51.919Z,27.76
2024-03-05T19:05:19.976Z,27.10
2024-03-05T19:07:48.017Z,27.93
2024-03-05T19:10:17.188Z,28.06
2024-03-05T19:12:47.116Z,26.13
2024-03-05T19:15:14.313Z,25.74
2024-03-05T19:17:44.446Z,25.00
2024-03-05T19:20:14.601Z,24.71
2024-03-05T19:22:42.112Z,25.27
2024-03-05T19:25:11.950Z,24.93
2024-03-05T19:27:42.842Z,25.99
2024-03-05T19:30:18.156Z,26.89
2024-03-05T19:32:45.788Z,27.62
2024-03-05T19:35:16.950Z,27.77
2024-03-05T19:37:45.678Z,26.37
2024-03-05T19:40:20.577Z,25.13
2024-03-05T19:42:54.779Z,25.28
2024-03-05T19:45:21.891Z,25.14
2024-03-05T19:47:52.285Z,25.73
2024-03-05T19:50:19.828Z,24.59
2024-03-05T19:52:49.359Z,27.12
2024-03-05T19:55:16.453Z,26.59
2024-03-05T19:57:44.274Z,25.88
2024-03-05T20:00:19.674Z,25.88
2024-03-05T20:02:48.003Z,26.38
2024-03-05T20:05:18.411Z,28.10
2024-03-05T20:07:45.589Z,28.44
2024-03-05T20:10:12.603Z,27.26
2024-03-05T20:12:40.254Z,26.83
2024-03-05T20:15:09.631Z,23.88
2024-03-05T20:17:39.718Z,23.92
2024-03-05T20:20:09.949Z,24.18
2024-03-05T20:22:39.724Z,23.63
2024-03-05T20:25:07.768Z,24.14
2024-03-05T20:27:34.744Z,24.06
2024-03-05T20:30:02.296Z,24.37
2024-03-05T20:32:31.789Z,24.63
2024-03-05T20:34:58.753Z,24.63
2024-03-05T20:37:25.447Z,24.26
2024-03-05T20:39:55.673Z,25.15
2024-03-05T20:42:22.366Z,26.44
2024-03-05T20:44:48.979Z,27.03
2024-03-05T20:47:15.578Z,25.91
2024-03-05T20:49:43.452Z,24.72
2024-03-05T20:52:10.194Z,25.09
2024-03-05T20:54:36.835Z,25.22
2024-03-05T20:57:03.449Z,24.61
2024-03-05T20:59:33.278Z,24.14
2024-03-05T21:02:03.106Z,25.12
2024-03-05T21:04:36.494Z,25.34
2024-03-05T21:07:05.890Z,24.35
2024-03-05T21:09:33.030Z,25.91
2024-03-05T21:11:59.722Z,49.02
2024-03-05T21:14:26.643Z,76.08
2024-03-05T21:16:53.994Z,34.84
2024-03-05T21:19:22.917Z,30.13
2024-03-05T21:21:50.355Z,26.08
2024-03-05T21:24:17.028Z,29.12
2024-03-05T21:26:54.657Z,29.48
2024-03-05T21:29:30.323Z,23.92
2024-03-05T21:31:59.292Z,21.92
2024-03-05T21:34:25.878Z,21.19
2024-03-05T21:36:53.461Z,20.55
2024-03-05T21:39:20.161Z,20.37
2024-03-05T21:41:47.648Z,20.38
2024-03-05T21:44:22.831Z,20.05
2024-03-05T21:46:56.340Z,20.43
2024-03-05T21:49:23.651Z,21.21
2024-03-05T21:51:51.293Z,22.05
2024-03-05T21:54:18.516Z,23.50
2024-03-05T21:56:45.079Z,26.80
2024-03-05T21:59:11.712Z,27.34
2024-03-05T22:01:38.367Z,26.80
2024-03-05T22:04:05.112Z,25.88
2024-03-05T22:06:33.273Z,23.02
2024-03-05T22:09:09.790Z,22.40
2024-03-05T22:11:41.136Z,21.74
2024-03-05T22:14:12.698Z,23.44
2024-03-05T22:16:41.149Z,24.09
2024-03-05T22:19:11.347Z,21.90
2024-03-05T22:21:38.729Z,20.90
2024-03-05T22:24:07.598Z,21.18
2024-03-05T22:26:34.878Z,21.76
2024-03-05T22:29:02.064Z,22.22
2024-03-05T22:31:30.943Z,22.83
2024-03-05T22:33:57.816Z,23.17
2024-03-05T22:36:25.162Z,23.51
2024-03-05T22:38:51.874Z,24.22
2024-03-05T22:41:18.832Z,24.30
2024-03-05T22:43:46.056Z,22.97
2024-03-05T22:46:12.734Z,22.59
2024-03-05T22:48:39.931Z,24.60
2024-03-05T22:51:09.950Z,29.31
2024-03-05T22:53:38.570Z,33.70
2024-03-05T22:56:07.859Z,33.96
2024-03-05T22:58:36.176Z,35.01
2024-03-05T23:01:05.794Z,32.54
2024-03-05T23:03:33.546Z,32.23
2024-03-05T23:06:03.193Z,32.99
2024-03-05T23:08:32.392Z,32.04
2024-03-05T23:10:59.138Z,33.06
2024-03-05T23:13:25.773Z,30.93
2024-03-05T23:15:52.421Z,31.62
2024-03-05T23:18:19.050Z,31.22
2024-03-05T23:20:45.659Z,31.04
2024-03-05T23:23:12.737Z,32.02
2024-03-05T23:25:39.883Z,35.79
2024-03-05T23:28:07.228Z,36.54
2024-03-05T23:30:34.054Z,35.43
2024-03-05T23:33:00.739Z,35.06
2024-03-05T23:35:27.445Z,36.11
2024-03-05T23:37:54.960Z,37.00
2024-03-05T23:40:21.536Z,38.33
2024-03-05T23:42:48.149Z,36.88
2024-03-05T23:45:14.753Z,35.49
2024-03-05T23:47:41.925Z,36.89
2024-03-05T23:50:10.365Z,38.18
2024-03-05T23:52:37.844Z,37.23
2024-03-05T23:55:07.948Z,36.52
2024-03-05T23:57:34.641Z,37.84
